Time;durP1;ratioP1;P1;durP2;ratioP2;P2;SDS_P1;SDS_P2;PMS_P1;PMS_P2;Temp;Humidity;BMP_temperature;BMP_pressure;BME280_temperature;BME280_humidity;BME280_pressure;Samples;Min_cycle;Max_cycle;Signal;HPM_P1;HPM_P2
2022/10/10 00:00:27;;;;;;;8.90;2.78;;;;;;;13.93;51.52;101823.91;5011654;28;99064;-66
2022/10/10 00:02:53;;;;;;;10.40;2.55;;;;;;;13.85;51.80;101834.75;5017698;27;98813;-65
2022/10/10 00:05:21;;;;;;;9.77;2.45;;;;;;;13.80;51.92;101830.53;5024403;27;96938;-65
2022/10/10 00:07:48;;;;;;;8.25;2.28;;;;;;;13.82;51.86;101829.56;5017037;27;97269;-64
2022/10/10 00:10:14;;;;;;;9.48;2.35;;;;;;;14.00;51.50;101829.88;5017957;27;98934;-65
2022/10/10 00:12:41;;;;;;;5.90;2.10;;;;;;;13.89;51.66;101831.09;5014946;28;99291;-65
2022/10/10 00:15:08;;;;;;;7.45;2.47;;;;;;;13.67;52.22;101832.69;5027579;27;97064;-65
2022/10/10 00:17:35;;;;;;;8.60;2.45;;;;;;;13.85;51.78;101829.44;5031670;28;96946;-64
2022/10/10 00:20:01;;;;;;;10.52;2.50;;;;;;;13.82;51.64;101826.91;5026594;28;99051;-65
2022/10/10 00:22:29;;;;;;;7.97;2.33;;;;;;;13.73;51.96;101821.88;5026198;27;98338;-66
2022/10/10 00:24:56;;;;;;;7.72;2.30;;;;;;;13.71;51.87;101818.41;5028595;27;96900;-65
2022/10/10 00:27:23;;;;;;;9.48;2.28;;;;;;;13.80;51.95;101827.88;5023919;28;96805;-66
2022/10/10 00:29:49;;;;;;;14.60;2.80;;;;;;;13.73;51.97;101818.34;5028986;28;98931;-66
2022/10/10 00:32:15;;;;;;;9.35;2.15;;;;;;;13.61;52.44;101808.97;5031607;27;98856;-65
2022/10/10 00:34:42;;;;;;;6.82;2.30;;;;;;;13.85;51.68;101802.88;5017944;28;98774;-65
2022/10/10 00:37:08;;;;;;;8.13;2.42;;;;;;;13.62;52.06;101800.09;5024838;28;96979;-65
2022/10/10 00:39:36;;;;;;;8.00;2.60;;;;;;;13.74;51.93;101794.41;5027115;27;98931;-65
2022/10/10 00:42:02;;;;;;;7.68;2.45;;;;;;;13.70;52.03;101800.75;5026349;27;98947;-64
2022/10/10 00:44:29;;;;;;;9.18;2.60;;;;;;;13.75;51.94;101796.13;5027850;28;98492;-65
2022/10/10 00:46:55;;;;;;;8.10;2.25;;;;;;;13.74;51.76;101791.75;5028103;28;96902;-65
2022/10/10 00:49:27;;;;;;;10.48;3.28;;;;;;;13.76;51.72;101797.88;5027453;28;98898;-65
2022/10/10 00:51:57;;;;;;;6.22;2.03;;;;;;;13.64;52.01;101792.97;5026646;27;98904;-65
2022/10/10 00:54:25;;;;;;;6.07;1.95;;;;;;;13.61;51.95;101790.38;5025983;28;96880;-65
2022/10/10 00:56:57;;;;;;;18.13;3.15;;;;;;;13.73;51.64;101784.69;5026906;27;97798;-65
2022/10/10 00:59:24;;;;;;;6.25;2.25;;;;;;;13.75;51.75;101788.19;5028683;28;98846;-64
2022/10/10 01:01:51;;;;;;;9.57;2.60;;;;;;;13.79;51.51;101789.81;5026612;28;99076;-64
2022/10/10 01:04:32;;;;;;;10.30;2.42;;;;;;;13.71;51.63;101781.22;5022121;27;98420;-65
2022/10/10 01:07:00;;;;;;;10.43;2.25;;;;;;;13.53;52.19;101774.69;5018755;27;97860;-65
2022/10/10 01:09:27;;;;;;;10.80;2.95;;;;;;;13.48;52.41;101775.75;5014070;28;101646;-64
2022/10/10 01:12:05;;;;;;;6.68;2.00;;;;;;;13.56;52.22;101774.63;5019470;27;98835;-66
2022/10/10 01:14:40;;;;;;;7.28;1.90;;;;;;;13.51;52.36;101765.06;5009523;28;98545;-64
2022/10/10 01:17:12;;;;;;;8.13;2.58;;;;;;;13.60;52.01;101766.53;5017520;28;97581;-65
2022/10/10 01:20:16;;;;;;;8.63;2.40;;;;;;;13.70;52.10;101771.53;5028045;28;99322;-64
2022/10/10 01:22:59;;;;;;;10.25;2.53;;;;;;;13.69;51.95;101761.81;5028450;28;99003;-65
2022/10/10 01:25:31;;;;;;;9.32;2.47;;;;;;;13.64;51.97;101754.91;5022565;28;96844;-65
2022/10/10 01:28:02;;;;;;;5.22;2.10;;;;;;;13.68;51.77;101748.56;5019223;27;96815;-64
2022/10/10 01:30:30;;;;;;;6.95;2.20;;;;;;;13.65;51.62;101757.53;5015002;27;100278;-65
2022/10/10 01:33:04;;;;;;;10.93;2.22;;;;;;;13.36;52.55;101755.78;5013682;28;99097;-64
2022/10/10 01:35:37;;;;;;;6.82;2.08;;;;;;;13.67;51.81;101744.19;5015827;28;99184;-65
2022/10/10 01:38:13;;;;;;;11.52;2.75;;;;;;;13.60;51.86;101738.19;5018357;28;96934;-66
2022/10/10 01:40:47;;;;;;;14.35;2.45;;;;;;;13.37;52.52;101744.25;5012374;27;97710;-66
2022/10/10 01:43:14;;;;;;;7.32;2.35;;;;;;;13.52;52.12;101733.13;5012270;28;99190;-65
2022/10/10 01:45:45;;;;;;;12.07;2.67;;;;;;;13.46;52.11;101732.44;5011125;28;97385;-65
2022/10/10 01:48:13;;;;;;;6.72;2.53;;;;;;;13.51;52.44;101727.88;5018608;28;99242;-65
2022/10/10 01:50:57;;;;;;;9.05;2.13;;;;;;;13.34;52.60;101724.88;5017699;28;99497;-65
2022/10/10 01:53:30;;;;;;;6.30;1.98;;;;;;;13.48;52.27;101727.97;5014281;28;98785;-64
2022/10/10 01:56:08;;;;;;;7.85;2.53;;;;;;;13.27;52.61;101731.28;5012098;28;98673;-65
2022/10/10 01:58:49;;;;;;;6.25;2.15;;;;;;;13.47;52.13;101719.13;5012737;28;98989;-64
2022/10/10 02:01:26;;;;;;;8.05;2.53;;;;;;;13.36;52.49;101720.41;5011892;28;100782;-65
2022/10/10 02:04:02;;;;;;;8.10;2.05;;;;;;;13.25;52.85;101719.88;5013295;28;98816;-64
2022/10/10 02:06:32;;;;;;;6.25;2.50;;;;;;;13.29;52.69;101721.50;5027000;28;96912;-65
2022/10/10 02:09:05;;;;;;;8.10;2.40;;;;;;;13.16;53.01;101721.88;5022945;27;98529;-64
2022/10/10 02:11:35;;;;;;;4.70;2.00;;;;;;;13.09;53.25;101712.34;5018086;28;98945;-65
2022/10/10 02:14:08;;;;;;;8.18;2.03;;;;;;;13.22;53.06;101715.53;5011970;27;98784;-67
2022/10/10 02:16:39;;;;;;;7.57;2.75;;;;;;;13.07;53.56;101706.19;5014006;28;98830;-65
2022/10/10 02:19:08;;;;;;;6.15;2.35;;;;;;;13.20;53.12;101705.84;5019557;27;97563;-64
2022/10/10 02:21:34;;;;;;;6.95;2.03;;;;;;;13.24;52.98;101703.09;5014794;28;99248;-65
2022/10/10 02:24:03;;;;;;;5.68;2.45;;;;;;;13.24;53.00;101697.78;5014504;27;99289;-64
2022/10/10 02:26:31;;;;;;;7.85;2.22;;;;;;;13.07;53.27;101694.72;5013010;27;98779;-64
2022/10/10 02:29:04;;;;;;;9.15;2.15;;;;;;;13.11;53.33;101699.03;5013032;28;98797;-64
2022/10/10 02:31:37;;;;;;;10.75;2.35;;;;;;;13.13;53.32;101698.09;5010724;28;99030;-66
2022/10/10 02:34:10;;;;;;;14.48;3.42;;;;;;;12.85;53.94;101689.22;5013726;28;98948;-64
2022/10/10 02:36:38;;;;;;;6.68;2.20;;;;;;;12.96;53.71;101684.44;5012291;28;98599;-64
2022/10/10 02:39:07;;;;;;;6.50;2.15;;;;;;;12.81;54.10;101682.25;5013610;28;98860;-65
2022/10/10 02:41:36;;;;;;;9.98;2.47;;;;;;;12.98;53.83;101679.09;5011331;28;98955;-64
2022/10/10 02:44:02;;;;;;;5.88;2.30;;;;;;;12.97;54.07;101678.22;5011892;28;99096;-65
2022/10/10 02:46:29;;;;;;;7.38;2.40;;;;;;;12.96;53.70;101673.84;5026771;28;96887;-66
2022/10/10 02:48:55;;;;;;;5.30;2.13;;;;;;;12.90;53.85;101675.81;5026347;28;98469;-65
2022/10/10 02:51:23;;;;;;;8.48;2.67;;;;;;;12.92;53.91;101673.97;5024553;28;98988;-65
2022/10/10 02:53:49;;;;;;;11.80;2.38;;;;;;;12.91;53.75;101670.47;5024244;28;99256;-64
2022/10/10 02:56:15;;;;;;;12.60;2.83;;;;;;;12.79;54.22;101673.50;5025061;28;96792;-65
2022/10/10 02:58:42;;;;;;;8.82;2.35;;;;;;;12.86;53.96;101664.44;5024595;28;98437;-66
2022/10/10 03:01:09;;;;;;;14.65;2.92;;;;;;;12.93;53.91;101657.16;5023630;27;98849;-65
2022/10/10 03:03:36;;;;;;;6.05;2.30;;;;;;;12.94;53.69;101656.22;5025065;28;98782;-66
2022/10/10 03:06:03;;;;;;;7.30;2.70;;;;;;;12.87;53.87;101659.97;5026363;27;96879;-65
2022/10/10 03:08:30;;;;;;;10.70;2.08;;;;;;;12.73;54.28;101648.00;5025645;28;96831;-65
2022/10/10 03:10:58;;;;;;;13.77;2.97;;;;;;;12.87;54.15;101652.00;5023527;28;99388;-65
2022/10/10 03:13:25;;;;;;;7.63;2.95;;;;;;;12.61;54.79;101643.06;5017291;28;98900;-65
2022/10/10 03:15:52;;;;;;;8.20;2.70;;;;;;;12.69;54.64;101640.19;5023383;27;98972;-64
2022/10/10 03:18:19;;;;;;;12.88;2.78;;;;;;;12.78;54.48;101639.91;5027912;27;97753;-65
2022/10/10 03:20:46;;;;;;;12.00;2.80;;;;;;;12.83;54.00;101642.41;5026333;28;99316;-65
2022/10/10 03:23:13;;;;;;;8.82;2.88;;;;;;;12.73;54.43;101626.78;5026880;28;101356;-66
2022/10/10 03:25:42;;;;;;;6.18;2.20;;;;;;;12.84;54.02;101629.13;5025790;28;98099;-65
2022/10/10 03:28:08;;;;;;;19.92;2.38;;;;;;;12.72;54.49;101633.03;5028345;27;96853;-66
2022/10/10 03:30:35;;;;;;;9.35;3.33;;;;;;;12.41;55.15;101628.66;5027366;28;99347;-66
2022/10/10 03:33:01;;;;;;;7.97;2.25;;;;;;;12.71;54.50;101627.75;5028616;28;98858;-65
2022/10/10 03:35:29;;;;;;;9.40;2.83;;;;;;;12.85;54.25;101625.56;5028985;28;96901;-65
2022/10/10 03:37:55;;;;;;;8.23;2.60;;;;;;;12.76;54.42;101620.53;5025823;27;98712;-65
2022/10/10 03:40:22;;;;;;;10.93;2.70;;;;;;;12.64;54.59;101615.59;5030520;27;99275;-66
2022/10/10 03:42:50;;;;;;;8.50;2.78;;;;;;;12.71;54.50;101609.19;5028836;27;99097;-66
2022/10/10 03:45:16;;;;;;;9.40;2.75;;;;;;;12.65;54.54;101612.03;5028227;27;97750;-65
2022/10/10 03:47:43;;;;;;;6.47;2.50;;;;;;;12.68;54.42;101610.16;5018267;28;97728;-65
2022/10/10 03:50:10;;;;;;;11.45;2.70;;;;;;;12.52;54.86;101600.94;5019695;28;98932;-66
2022/10/10 03:52:36;;;;;;;7.38;2.45;;;;;;;12.72;54.50;101608.28;5015737;28;100462;-66
2022/10/10 03:55:03;;;;;;;8.57;2.67;;;;;;;12.64;54.62;101597.03;5015817;28;98509;-65
2022/10/10 03:57:30;;;;;;;10.02;2.72;;;;;;;12.60;54.56;101592.75;5017545;28;97593;-65
2022/10/10 03:59:57;;;;;;;20.08;2.83;;;;;;;12.45;54.93;101594.06;5014237;28;99461;-65
2022/10/10 04:02:24;;;;;;;8.13;2.25;;;;;;;12.46;54.95;101589.66;5017083;27;98978;-66
2022/10/10 04:04:50;;;;;;;8.82;2.67;;;;;;;12.52;54.98;101589.47;5013053;28;98349;-67
2022/10/10 04:07:16;;;;;;;6.55;2.35;;;;;;;12.43;55.13;101582.63;5016816;27;98556;-65
2022/10/10 04:09:43;;;;;;;7.65;2.58;;;;;;;12.64;54.61;101581.13;5023138;27;98992;-66
2022/10/10 04:12:09;;;;;;;6.95;2.50;;;;;;;12.43;55.14;101582.63;5025909;28;98930;-65
2022/10/10 04:14:36;;;;;;;8.52;2.97;;;;;;;12.48;55.10;101578.06;5018465;28;97810;-65
2022/10/10 04:17:03;;;;;;;13.10;2.55;;;;;;;12.56;54.88;101572.53;5029513;28;96810;-66
2022/10/10 04:19:30;;;;;;;9.85;2.78;;;;;;;12.61;54.67;101562.66;5029636;27;99314;-66
2022/10/10 04:21:56;;;;;;;6.15;2.45;;;;;;;12.60;54.56;101560.94;5029474;27;98780;-66
2022/10/10 04:24:22;;;;;;;9.00;3.10;;;;;;;12.43;55.13;101557.91;5030654;28;98750;-65
2022/10/10 04:26:49;;;;;;;10.90;3.03;;;;;;;12.25;55.68;101556.69;5030773;28;96999;-66
2022/10/10 04:29:15;;;;;;;8.13;2.95;;;;;;;12.54;55.14;101555.78;5015592;28;99069;-66
2022/10/10 04:31:41;;;;;;;10.43;2.63;;;;;;;12.70;54.39;101551.75;5012839;27;98854;-65
2022/10/10 04:34:09;;;;;;;6.07;2.22;;;;;;;12.62;54.53;101548.47;5014585;27;97401;-66
2022/10/10 04:36:35;;;;;;;8.00;2.92;;;;;;;12.67;54.45;101543.91;5013259;28;98634;-65
2022/10/10 04:39:02;;;;;;;6.88;2.65;;;;;;;12.70;54.38;101541.16;5014218;27;99455;-65
2022/10/10 04:41:28;;;;;;;9.82;2.92;;;;;;;12.65;54.57;101535.16;5014621;28;97769;-65
2022/10/10 04:43:54;;;;;;;7.00;2.47;;;;;;;12.57;55.03;101532.72;5014064;28;99032;-66
2022/10/10 04:46:21;;;;;;;14.30;3.45;;;;;;;12.75;54.37;101533.91;5014243;28;98293;-65
2022/10/10 04:48:47;;;;;;;12.75;3.10;;;;;;;12.70;54.56;101525.25;5021805;27;98321;-65
2022/10/10 04:51:15;;;;;;;7.03;3.13;;;;;;;12.69;54.53;101523.50;5029191;28;98980;-65
2022/10/10 04:53:41;;;;;;;5.97;2.90;;;;;;;12.68;54.40;101517.34;5026547;28;98699;-65
2022/10/10 04:56:08;;;;;;;10.52;3.22;;;;;;;12.53;55.15;101517.84;5027748;27;96845;-65
2022/10/10 04:58:34;;;;;;;7.05;3.13;;;;;;;12.61;54.82;101510.50;5029499;28;98977;-66
2022/10/10 05:01:00;;;;;;;8.88;3.38;;;;;;;12.72;54.33;101505.72;5028509;27;98678;-64
2022/10/10 05:03:27;;;;;;;10.73;3.50;;;;;;;12.48;54.83;101497.66;5026258;27;96854;-64
2022/10/10 05:05:53;;;;;;;10.35;3.00;;;;;;;12.66;54.26;101491.81;5028188;27;98509;-66
2022/10/10 05:08:21;;;;;;;10.75;3.55;;;;;;;12.19;55.63;101485.34;5027047;28;99312;-65
2022/10/10 05:10:51;;;;;;;8.25;2.90;;;;;;;12.63;54.66;101486.59;5021814;27;98734;-66
2022/10/10 05:13:17;;;;;;;13.00;3.20;;;;;;;12.54;54.62;101478.91;5023825;28;98688;-66
2022/10/10 05:15:44;;;;;;;9.15;3.63;;;;;;;12.45;54.64;101489.84;5022949;27;97573;-66
2022/10/10 05:18:10;;;;;;;8.25;2.67;;;;;;;12.43;54.97;101479.28;5028833;27;98935;-65
2022/10/10 05:20:37;;;;;;;7.30;3.22;;;;;;;12.35;55.07;101476.84;5028604;28;98829;-65
2022/10/10 05:23:03;;;;;;;9.77;3.03;;;;;;;12.31;54.99;101479.66;5029041;27;96890;-65
2022/10/10 05:25:31;;;;;;;10.55;3.20;;;;;;;12.08;55.92;101480.34;5022029;27;107442;-66
2022/10/10 05:27:57;;;;;;;9.50;3.10;;;;;;;12.10;56.16;101473.22;5027673;27;98807;-65
2022/10/10 05:30:24;;;;;;;9.15;3.33;;;;;;;12.27;55.61;101457.66;5024514;27;98820;-66
2022/10/10 05:32:50;;;;;;;13.23;3.05;;;;;;;12.29;55.25;101461.16;5026079;27;97508;-66
2022/10/10 05:35:17;;;;;;;6.38;2.97;;;;;;;12.17;55.40;101466.84;5025073;27;96964;-65
2022/10/10 05:37:43;;;;;;;8.60;3.10;;;;;;;12.34;54.89;101464.50;5024989;27;99098;-65
2022/10/10 05:40:10;;;;;;;8.02;3.13;;;;;;;12.14;55.41;101460.78;5027511;27;98876;-65
2022/10/10 05:42:38;;;;;;;8.23;2.72;;;;;;;12.19;55.21;101464.13;5024590;28;98565;-65
2022/10/10 05:45:05;;;;;;;12.90;3.28;;;;;;;12.23;55.27;101471.06;5029086;28;97479;-65
2022/10/10 05:47:31;;;;;;;11.75;3.13;;;;;;;12.03;55.65;101469.03;5015634;28;99463;-64
2022/10/10 05:49:57;;;;;;;14.02;3.30;;;;;;;12.06;55.56;101453.06;5018761;28;98769;-66
2022/10/10 05:52:24;;;;;;;11.35;3.50;;;;;;;12.26;55.18;101450.66;5011989;28;98101;-66
2022/10/10 05:54:50;;;;;;;16.08;3.25;;;;;;;12.26;54.79;101461.25;5014137;27;97186;-65
2022/10/10 05:57:17;;;;;;;9.25;3.20;;;;;;;12.23;55.13;101456.03;5014915;27;99067;-65
2022/10/10 05:59:45;;;;;;;6.38;3.20;;;;;;;12.28;55.02;101470.00;5018487;28;101722;-66
2022/10/10 06:02:11;;;;;;;11.43;3.10;;;;;;;12.21;55.10;101457.84;5027233;27;96865;-64
2022/10/10 06:04:38;;;;;;;10.52;3.58;;;;;;;12.13;55.51;101459.91;5027141;27;96933;-65
2022/10/10 06:07:05;;;;;;;7.88;3.30;;;;;;;12.38;54.68;101463.53;5029414;28;98972;-65
2022/10/10 06:09:31;;;;;;;6.40;2.90;;;;;;;12.45;54.45;101455.38;5025564;27;97654;-65
2022/10/10 06:11:57;;;;;;;10.57;3.30;;;;;;;12.46;54.50;101462.41;5026878;27;96936;-66
2022/10/10 06:14:24;;;;;;;14.30;3.22;;;;;;;12.60;54.32;101462.84;5024809;27;98510;-64
2022/10/10 06:16:51;;;;;;;9.90;3.33;;;;;;;12.56;54.22;101458.53;5024951;27;99224;-64
2022/10/10 06:19:18;;;;;;;15.20;3.75;;;;;;;12.59;53.95;101464.63;5024750;28;98624;-64
2022/10/10 06:21:44;;;;;;;6.85;2.95;;;;;;;12.76;53.91;101472.00;5029077;27;96793;-65
2022/10/10 06:24:11;;;;;;;11.45;3.55;;;;;;;12.59;53.66;101461.09;5026050;27;97789;-66
2022/10/10 06:26:37;;;;;;;7.35;2.88;;;;;;;12.65;53.46;101452.94;5029624;28;99118;-66
2022/10/10 06:29:04;;;;;;;12.38;4.10;;;;;;;12.72;53.39;101465.09;5028154;28;99138;-65
2022/10/10 06:31:30;;;;;;;10.68;3.03;;;;;;;12.59;53.91;101461.97;5024107;27;97328;-65
2022/10/10 06:33:58;;;;;;;11.27;3.42;;;;;;;12.48;53.91;101450.81;5026992;28;96845;-65
2022/10/10 06:36:25;;;;;;;9.02;3.58;;;;;;;12.55;54.06;101462.97;5022969;28;99104;-65
2022/10/10 06:38:51;;;;;;;12.77;3.47;;;;;;;12.55;54.11;101464.75;5024292;28;99251;-65
2022/10/10 06:41:17;;;;;;;10.05;3.88;;;;;;;12.54;54.04;101453.28;5027943;28;96777;-65
2022/10/10 06:43:44;;;;;;;12.98;4.75;;;;;;;12.73;53.78;101465.00;5022614;28;97088;-65
2022/10/10 06:46:10;;;;;;;10.90;3.70;;;;;;;12.70;53.67;101466.91;5028787;28;98907;-64
2022/10/10 06:48:37;;;;;;;10.73;3.78;;;;;;;12.77;53.39;101463.16;5027619;27;96779;-68
2022/10/10 06:51:07;;;;;;;13.50;3.33;;;;;;;12.72;53.69;101459.78;5021561;27;97300;-64
2022/10/10 06:53:34;;;;;;;10.38;3.00;;;;;;;12.86;53.19;101457.53;5022319;27;97188;-64
2022/10/10 06:56:01;;;;;;;15.85;3.60;;;;;;;12.88;52.99;101450.38;5019986;27;99568;-65
2022/10/10 06:58:29;;;;;;;8.05;3.13;;;;;;;12.77;53.18;101449.88;5023249;27;101511;-66
2022/10/10 07:00:58;;;;;;;10.32;3.13;;;;;;;12.92;52.92;101448.50;5023237;27;96720;-65
2022/10/10 07:03:25;;;;;;;13.75;3.55;;;;;;;13.11;52.43;101445.16;5023623;27;97299;-66
2022/10/10 07:05:52;;;;;;;8.77;2.88;;;;;;;13.19;51.70;101447.59;5024958;28;99355;-67
2022/10/10 07:08:21;;;;;;;6.82;2.78;;;;;;;13.01;52.12;101441.09;5023660;28;98877;-65
2022/10/10 07:10:47;;;;;;;14.20;3.17;;;;;;;12.89;52.52;101441.50;5023755;27;96831;-65
2022/10/10 07:13:14;;;;;;;6.45;2.95;;;;;;;13.18;52.04;101437.91;5024448;27;97129;-65
2022/10/10 07:15:41;;;;;;;9.18;3.15;;;;;;;13.15;51.40;101441.50;5024370;27;99105;-65
2022/10/10 07:18:08;;;;;;;9.90;3.85;;;;;;;13.21;51.49;101442.22;5023179;28;100199;-65
2022/10/10 07:20:35;;;;;;;13.98;3.67;;;;;;;13.35;51.25;101437.28;5027053;28;96898;-66
2022/10/10 07:23:02;;;;;;;5.63;3.00;;;;;;;13.36;51.07;101426.63;5021459;27;97053;-65
2022/10/10 07:25:30;;;;;;;11.00;3.40;;;;;;;13.14;51.54;101428.28;5026817;28;98926;-65
2022/10/10 07:27:57;;;;;;;9.43;3.47;;;;;;;13.08;51.70;101428.47;5025358;27;99210;-66
2022/10/10 07:30:24;;;;;;;8.02;2.97;;;;;;;13.20;51.57;101432.50;5027329;27;97280;-65
2022/10/10 07:32:53;;;;;;;11.43;2.92;;;;;;;13.18;51.51;101437.03;5015586;27;97116;-65
2022/10/10 07:35:20;;;;;;;15.13;3.83;;;;;;;13.30;51.26;101429.50;5021640;28;97809;-66
2022/10/10 07:37:47;;;;;;;8.50;3.58;;;;;;;13.27;51.05;101439.34;5028162;28;99089;-66
2022/10/10 07:40:13;;;;;;;6.47;3.22;;;;;;;13.21;51.24;101443.06;5029587;28;97336;-66
2022/10/10 07:42:41;;;;;;;9.63;3.72;;;;;;;13.34;51.05;101425.78;5025215;27;97124;-66
2022/10/10 07:45:10;;;;;;;8.43;2.70;;;;;;;13.69;50.55;101423.63;5028276;27;98878;-65
2022/10/10 07:47:36;;;;;;;9.00;2.72;;;;;;;13.71;50.08;101430.63;5022545;28;98078;-66
2022/10/10 07:50:05;;;;;;;9.50;2.75;;;;;;;13.90;49.72;101426.34;5024992;27;97344;-65
2022/10/10 07:52:31;;;;;;;9.68;3.10;;;;;;;13.90;49.34;101421.03;5026045;27;97937;-66
2022/10/10 07:54:57;;;;;;;7.05;3.13;;;;;;;13.91;49.40;101425.41;5027395;28;98951;-65
2022/10/10 07:57:24;;;;;;;8.07;2.80;;;;;;;13.90;49.42;101428.16;5026871;28;98867;-65
2022/10/10 07:59:52;;;;;;;7.00;2.70;;;;;;;13.56;49.68;101428.53;5026057;28;96882;-65
2022/10/10 08:02:18;;;;;;;7.50;3.03;;;;;;;13.56;50.00;101429.41;5014408;27;99315;-65
2022/10/10 08:04:44;;;;;;;5.47;2.42;;;;;;;13.52;49.95;101430.44;5019747;27;101289;-65
2022/10/10 08:07:11;;;;;;;13.02;3.15;;;;;;;13.68;49.58;101428.09;5024867;27;98856;-65
2022/10/10 08:09:37;;;;;;;8.18;2.45;;;;;;;13.60;49.64;101422.19;5026484;27;97954;-65
2022/10/10 08:12:04;;;;;;;10.00;2.65;;;;;;;13.68;49.64;101425.41;5025380;27;97387;-65
2022/10/10 08:14:30;;;;;;;8.27;3.05;;;;;;;13.71;49.59;101417.34;5026311;28;99594;-65
2022/10/10 08:16:58;;;;;;;8.38;3.05;;;;;;;13.67;49.32;101415.72;5027383;27;98834;-66
2022/10/10 08:19:24;;;;;;;12.68;3.03;;;;;;;13.94;48.97;101409.34;5029191;28;96835;-66
2022/10/10 08:21:50;;;;;;;9.18;2.70;;;;;;;14.15;48.79;101414.75;5024535;28;96932;-65
2022/10/10 08:24:17;;;;;;;8.10;2.83;;;;;;;14.35;48.32;101410.38;5022226;27;99219;-66
2022/10/10 08:26:43;;;;;;;6.68;2.58;;;;;;;14.62;47.66;101403.09;5029678;27;98659;-65
2022/10/10 08:29:09;;;;;;;7.30;2.70;;;;;;;14.68;47.26;101405.50;5026923;27;97564;-65
2022/10/10 08:31:36;;;;;;;6.95;2.97;;;;;;;14.65;47.34;101408.28;5026988;28;96851;-66
2022/10/10 08:34:04;;;;;;;8.98;3.50;;;;;;;14.77;47.26;101407.75;5022299;28;99098;-65
2022/10/10 08:36:30;;;;;;;7.82;3.20;;;;;;;15.03;47.21;101398.66;5028438;28;99144;-65
2022/10/10 08:38:59;;;;;;;13.25;2.97;;;;;;;15.85;45.13;101404.75;5026247;28;96765;-65
2022/10/10 08:41:34;;;;;;;14.90;3.17;;;;;;;15.87;44.84;101402.88;5026876;27;97017;-67
2022/10/10 08:44:05;;;;;;;15.65;2.90;;;;;;;15.93;44.55;101397.25;5024787;27;99296;-66
2022/10/10 08:46:36;;;;;;;6.60;2.58;;;;;;;15.98;44.67;101399.69;5027799;28;99082;-66
2022/10/10 08:49:16;;;;;;;9.85;2.63;;;;;;;16.03;44.66;101403.00;5024198;28;97776;-66
2022/10/10 08:51:48;;;;;;;9.80;2.90;;;;;;;16.06;44.50;101401.06;5026096;28;98717;-65
2022/10/10 08:54:17;;;;;;;13.07;2.80;;;;;;;16.09;44.58;101405.38;5021999;28;99033;-66
2022/10/10 08:56:44;;;;;;;7.30;2.42;;;;;;;16.38;43.92;101395.97;5028465;28;99155;-66
2022/10/10 08:59:16;;;;;;;10.07;3.05;;;;;;;16.50;43.66;101392.69;5025012;27;98799;-65
2022/10/10 09:01:42;;;;;;;6.95;2.55;;;;;;;16.15;44.17;101389.94;5026449;27;97089;-65
2022/10/10 09:04:16;;;;;;;7.88;2.55;;;;;;;16.23;44.40;101389.56;5020337;27;99869;-67
2022/10/10 09:07:00;;;;;;;6.95;2.88;;;;;;;16.47;43.93;101384.84;5025956;27;99110;-65
2022/10/10 09:09:36;;;;;;;8.65;2.60;;;;;;;16.35;44.17;101372.97;5021847;28;97040;-65
2022/10/10 09:12:15;;;;;;;5.70;2.10;;;;;;;16.46;43.51;101375.97;5020048;27;98608;-66
2022/10/10 09:14:49;;;;;;;6.53;2.65;;;;;;;16.54;43.33;101364.94;5023415;27;99143;-66
2022/10/10 09:17:23;;;;;;;6.55;2.42;;;;;;;16.85;42.83;101359.78;5028606;27;98144;-66
2022/10/10 09:20:02;;;;;;;5.78;2.58;;;;;;;17.20;42.44;101363.25;5027016;28;97211;-66
2022/10/10 09:22:33;;;;;;;7.63;2.40;;;;;;;17.53;41.82;101355.22;5024206;28;99085;-65
2022/10/10 09:25:05;;;;;;;10.63;2.63;;;;;;;17.83;41.47;101356.25;5020435;28;99077;-66
2022/10/10 09:27:37;;;;;;;6.85;2.20;;;;;;;17.85;41.20;101354.34;5023991;28;98979;-66
2022/10/10 09:30:06;;;;;;;7.65;2.90;;;;;;;18.15;40.80;101356.25;5020098;27;99273;-66
2022/10/10 09:32:37;;;;;;;6.80;2.20;;;;;;;18.23;40.47;101346.84;5020812;27;98076;-66
2022/10/10 09:35:15;;;;;;;10.63;2.50;;;;;;;18.22;39.90;101349.59;5019120;27;98875;-66
2022/10/10 09:37:43;;;;;;;6.55;2.20;;;;;;;17.87;40.55;101355.13;5021941;28;97580;-66
2022/10/10 09:40:18;;;;;;;8.95;2.70;;;;;;;18.26;40.11;101340.44;5028449;28;97197;-66
2022/10/10 09:42:45;;;;;;;7.60;2.03;;;;;;;18.55;39.90;101346.75;5024066;28;97335;-66
2022/10/10 09:45:17;;;;;;;6.20;2.03;;;;;;;19.01;39.14;101342.22;5023430;28;97534;-66
2022/10/10 09:47:43;;;;;;;5.32;2.20;;;;;;;18.82;39.00;101338.94;5024547;28;99005;-66
2022/10/10 09:50:15;;;;;;;6.50;2.20;;;;;;;19.14;38.66;101329.78;5021394;27;97694;-66
2022/10/10 09:52:42;;;;;;;6.03;2.03;;;;;;;19.33;38.49;101319.66;5026980;27;97257;-65
2022/10/10 09:55:22;;;;;;;5.13;2.15;;;;;;;19.29;38.34;101334.22;5021147;28;97627;-65
2022/10/10 09:57:51;;;;;;;3.55;2.00;;;;;;;19.10;39.15;101325.56;5020229;27;98962;-67
2022/10/10 10:00:32;;;;;;;9.35;2.15;;;;;;;19.00;38.74;101316.38;5024151;28;96847;-66
2022/10/10 10:03:16;;;;;;;10.02;2.35;;;;;;;19.17;38.71;101320.69;5022605;28;97324;-67
2022/10/10 10:05:56;;;;;;;9.02;2.28;;;;;;;19.31;38.77;101329.59;5021548;28;99801;-66
2022/10/10 10:08:26;;;;;;;5.03;2.10;;;;;;;19.20;38.80;101328.53;5021611;27;98850;-67
2022/10/10 10:10:56;;;;;;;6.97;2.63;;;;;;;18.84;39.45;101332.50;5025257;27;96814;-66
2022/10/10 10:13:27;;;;;;;6.78;2.28;;;;;;;18.90;39.79;101329.50;5022086;28;96963;-66
2022/10/10 10:16:02;;;;;;;10.70;2.50;;;;;;;18.68;40.27;101327.25;5022367;28;98913;-66
2022/10/10 10:18:30;;;;;;;11.45;3.03;;;;;;;18.46;40.55;101331.22;5022177;28;98073;-68
2022/10/10 10:21:14;;;;;;;7.32;2.28;;;;;;;18.59;40.49;101338.47;5024851;28;96843;-65
2022/10/10 10:23:43;;;;;;;4.65;2.58;;;;;;;18.62;40.53;101330.28;5019171;28;99175;-66
2022/10/10 10:26:17;;;;;;;4.45;2.30;;;;;;;18.63;40.62;101328.47;5021877;28;99031;-66
2022/10/10 10:28:44;;;;;;;9.45;2.47;;;;;;;18.78;40.29;101326.66;5019638;28;101538;-66
2022/10/10 10:31:19;;;;;;;8.00;2.45;;;;;;;18.94;40.38;101331.00;5026731;28;97288;-68
2022/10/10 10:33:53;;;;;;;5.32;2.00;;;;;;;18.96;39.72;101320.22;5023729;28;97232;-66
2022/10/10 10:36:35;;;;;;;5.80;2.60;;;;;;;18.87;40.21;101307.38;5021764;28;99336;-66
2022/10/10 10:39:17;;;;;;;5.22;2.15;;;;;;;18.94;40.00;101301.56;5025778;28;98858;-65
2022/10/10 10:41:51;;;;;;;5.57;2.40;;;;;;;18.60;40.87;101301.88;5021718;27;97609;-65
2022/10/10 10:44:30;;;;;;;7.88;1.90;;;;;;;18.84;40.55;101304.91;5021786;27;97187;-66
2022/10/10 10:47:08;;;;;;;3.90;1.98;;;;;;;18.78;40.50;101299.91;5019730;28;98956;-66
2022/10/10 10:49:42;;;;;;;4.82;2.25;;;;;;;19.07;39.63;101301.66;5022524;28;98196;-66
2022/10/10 10:52:38;;;;;;;8.55;2.45;;;;;;;19.13;39.41;101303.94;5022448;27;97679;-65
2022/10/10 10:55:26;;;;;;;6.88;2.50;;;;;;;19.10;39.21;101285.38;5023296;28;97194;-67
2022/10/10 10:58:10;;;;;;;5.80;2.00;;;;;;;19.12;39.92;101280.78;5022263;28;98971;-65
2022/10/10 11:00:45;;;;;;;3.83;1.70;;;;;;;19.19;39.50;101276.78;5021028;27;99403;-66
2022/10/10 11:03:25;;;;;;;6.00;1.98;;;;;;;18.93;39.76;101273.06;5023582;28;96815;-66
2022/10/10 11:05:58;;;;;;;4.15;2.30;;;;;;;18.71;40.07;101286.03;5023847;28;97254;-65
2022/10/10 11:08:36;;;;;;;5.68;1.80;;;;;;;18.92;39.98;101276.69;5023727;28;99152;-66
2022/10/10 11:11:30;;;;;;;6.93;2.08;;;;;;;19.04;40.32;101278.59;5024959;28;98131;-65
2022/10/10 11:14:01;;;;;;;10.88;3.33;;;;;;;19.15;40.02;101275.25;5025356;28;96769;-65
2022/10/10 11:16:37;;;;;;;5.03;2.10;;;;;;;19.21;39.61;101277.56;5021223;27;97709;-66
2022/10/10 11:19:17;;;;;;;7.20;2.20;;;;;;;19.05;40.05;101280.31;5026278;27;99102;-65
2022/10/10 11:21:48;;;;;;;5.75;1.95;;;;;;;19.02;40.66;101269.81;5019822;28;99147;-65
2022/10/10 11:24:27;;;;;;;10.57;2.55;;;;;;;19.19;40.53;101260.72;5023016;28;98685;-65
2022/10/10 11:26:57;;;;;;;7.13;2.33;;;;;;;19.00;40.49;101260.16;5026571;28;97580;-65
2022/10/10 11:29:27;;;;;;;4.18;1.50;;;;;;;19.03;40.85;101263.47;5023469;28;99280;-66
2022/10/10 11:31:57;;;;;;;7.18;2.10;;;;;;;18.99;40.89;101266.44;5025416;27;99955;-68